Favola — IBFH — position and weather

sailwx.info

Track history (hours):
 
Tides and Currents Weather Stations Pressure Air Temp Water Temp Dewpoint Dewpoint Depression Visibility Wind Speed Wind Dir Waves Ship Positions

Favola

Last reported at 2016-May-28 23:33 UTC. Time now 2016-May-29 00:07 UTC.
Position N 16°18' W 017°54'.

Length 180 m; draft 10 m.

Type: Ship (hazmat cat D). MMSI: 247069800.

Date/timePositionNaut miles runAvg speedWind from/ knotsBaromVisibWave heightAir tempDewpointWater temp
2016-May-28 23:33N 16°18' W 017°54'1010.2
2016-May-28 22:33N 16°08' W 017°54'3110.3
2016-May-28 19:33N 15°37' W 017°54'1110.6
2016-May-28 18:33N 15°27' W 017°54'1110.9
2016-May-28 17:33N 15°16' W 017°54'2210.8
2016-May-28 15:30N 14°54' W 017°54'1511.0
2016-May-28 14:09N 14°39' W 017°53'710.8
2016-May-28 13:32N 14°32' W 017°53'1010.7
2016-May-28 12:33N 14°22' W 017°53'1110.7
2016-May-28 11:33N 14°11' W 017°53'1110.9
2016-May-28 10:33N 14°00' W 017°53'1211.3
2016-May-28 09:30N 13°48' W 017°53'1111.7
2016-May-28 08:34N 13°37' W 017°53'1311.2
2016-May-28 07:22N 13°24' W 017°53'9311.9
2016-May-27 23:31N 11°50' W 017°52'2311.6
2016-May-27 21:32N 11°27' W 017°52'  
Track history (hours):
 
Tides and Currents Weather Stations Pressure Air Temp Water Temp Dewpoint Dewpoint Depression Visibility Wind Speed Wind Dir Waves Ship Positions

Favola

Last reported at 2016-May-28 23:33 UTC. Time now 2016-May-29 00:07 UTC.
Position N 16°18' W 017°54'.

Length 180 m; draft 10 m.

Type: Ship (hazmat cat D). MMSI: 247069800.

Date/timePositionNaut miles runAvg speedWind from/ knotsBaromVisibWave heightAir tempDewpointWater temp
2016-May-28 23:33N 16°18' W 017°54'1010.2
2016-May-28 22:33N 16°08' W 017°54'3110.3
2016-May-28 19:33N 15°37' W 017°54'1110.6
2016-May-28 18:33N 15°27' W 017°54'1110.9
2016-May-28 17:33N 15°16' W 017°54'2210.8
2016-May-28 15:30N 14°54' W 017°54'1511.0
2016-May-28 14:09N 14°39' W 017°53'710.8
2016-May-28 13:32N 14°32' W 017°53'1010.7
2016-May-28 12:33N 14°22' W 017°53'1110.7
2016-May-28 11:33N 14°11' W 017°53'1110.9
2016-May-28 10:33N 14°00' W 017°53'1211.3
2016-May-28 09:30N 13°48' W 017°53'1111.7
2016-May-28 08:34N 13°37' W 017°53'1311.2
2016-May-28 07:22N 13°24' W 017°53'9311.9
2016-May-27 23:31N 11°50' W 017°52'2311.6
2016-May-27 21:32N 11°27' W 017°52'  

Dump ship's entire track history